sensor_id;sensor_type;location;lat;lon;timestamp;temperature;humidity
2174;DHT22;1093;51.424;11.764;2023-07-08T00:01:08;16.80;1.40
2174;DHT22;1093;51.424;11.764;2023-07-08T00:03:38;16.80;1.40
2174;DHT22;1093;51.424;11.764;2023-07-08T00:06:10;16.70;1.40
2174;DHT22;1093;51.424;11.764;2023-07-08T00:08:38;16.70;1.40
2174;DHT22;1093;51.424;11.764;2023-07-08T00:11:09;16.60;1.40
2174;DHT22;1093;51.424;11.764;2023-07-08T00:13:36;16.60;1.40
2174;DHT22;1093;51.424;11.764;2023-07-08T00:16:03;16.50;1.40
2174;DHT22;1093;51.424;11.764;2023-07-08T00:18:30;16.50;1.40
2174;DHT22;1093;51.424;11.764;2023-07-08T00:20:58;16.50;1.40
2174;DHT22;1093;51.424;11.764;2023-07-08T00:23:25;16.40;1.40
2174;DHT22;1093;51.424;11.764;2023-07-08T00:25:52;16.40;1.40
2174;DHT22;1093;51.424;11.764;2023-07-08T00:28:20;16.40;1.40
2174;DHT22;1093;51.424;11.764;2023-07-08T00:30:48;16.40;1.40
2174;DHT22;1093;51.424;11.764;2023-07-08T00:33:15;16.40;1.40
2174;DHT22;1093;51.424;11.764;2023-07-08T00:35:43;16.30;1.40
2174;DHT22;1093;51.424;11.764;2023-07-08T00:38:15;16.20;1.40
2174;DHT22;1093;51.424;11.764;2023-07-08T00:40:50;16.20;1.40
2174;DHT22;1093;51.424;11.764;2023-07-08T00:43:17;16.10;1.40
2174;DHT22;1093;51.424;11.764;2023-07-08T00:45:48;16.10;1.40
2174;DHT22;1093;51.424;11.764;2023-07-08T00:48:21;16.10;1.40
2174;DHT22;1093;51.424;11.764;2023-07-08T00:50:50;16.10;1.40
2174;DHT22;1093;51.424;11.764;2023-07-08T00:53:30;16.00;1.40
2174;DHT22;1093;51.424;11.764;2023-07-08T00:56:00;16.00;1.40
2174;DHT22;1093;51.424;11.764;2023-07-08T00:58:32;15.90;1.40
2174;DHT22;1093;51.424;11.764;2023-07-08T01:00:59;15.90;1.40
2174;DHT22;1093;51.424;11.764;2023-07-08T01:03:29;15.90;1.40
2174;DHT22;1093;51.424;11.764;2023-07-08T01:05:57;15.90;1.40
2174;DHT22;1093;51.424;11.764;2023-07-08T01:08:28;15.90;1.40
2174;DHT22;1093;51.424;11.764;2023-07-08T01:10:59;15.90;1.40
2174;DHT22;1093;51.424;11.764;2023-07-08T01:13:30;15.90;1.40
2174;DHT22;1093;51.424;11.764;2023-07-08T01:15:58;15.90;1.40
2174;DHT22;1093;51.424;11.764;2023-07-08T01:18:26;15.80;1.40
2174;DHT22;1093;51.424;11.764;2023-07-08T01:20:52;15.80;1.40
2174;DHT22;1093;51.424;11.764;2023-07-08T01:23:22;15.70;1.40
2174;DHT22;1093;51.424;11.764;2023-07-08T01:25:49;15.60;1.40
2174;DHT22;1093;51.424;11.764;2023-07-08T01:28:16;15.60;1.40
2174;DHT22;1093;51.424;11.764;2023-07-08T01:30:43;15.60;1.40
2174;DHT22;1093;51.424;11.764;2023-07-08T01:33:16;15.60;1.40
2174;DHT22;1093;51.424;11.764;2023-07-08T01:35:45;15.60;1.40
2174;DHT22;1093;51.424;11.764;2023-07-08T01:38:15;15.70;1.40
2174;DHT22;1093;51.424;11.764;2023-07-08T01:40:55;15.60;1.40
2174;DHT22;1093;51.424;11.764;2023-07-08T01:43:22;15.60;1.40
2174;DHT22;1093;51.424;11.764;2023-07-08T01:45:51;15.50;1.40
2174;DHT22;1093;51.424;11.764;2023-07-08T01:48:20;15.50;1.40
2174;DHT22;1093;51.424;11.764;2023-07-08T01:50:52;15.40;1.40
2174;DHT22;1093;51.424;11.764;2023-07-08T01:53:26;15.40;1.40
2174;DHT22;1093;51.424;11.764;2023-07-08T01:55:55;15.50;1.40
2174;DHT22;1093;51.424;11.764;2023-07-08T01:58:21;15.50;1.40
2174;DHT22;1093;51.424;11.764;2023-07-08T02:00:48;15.40;1.40
2174;DHT22;1093;51.424;11.764;2023-07-08T02:03:15;15.40;1.40
2174;DHT22;1093;51.424;11.764;2023-07-08T02:05:42;15.30;1.40
2174;DHT22;1093;51.424;11.764;2023-07-08T02:08:09;15.20;1.40
2174;DHT22;1093;51.424;11.764;2023-07-08T02:10:37;15.10;1.40
2174;DHT22;1093;51.424;11.764;2023-07-08T02:13:06;15.10;1.40
2174;DHT22;1093;51.424;11.764;2023-07-08T02:15:32;15.10;1.40
2174;DHT22;1093;51.424;11.764;2023-07-08T02:17:59;15.10;1.40
2174;DHT22;1093;51.424;11.764;2023-07-08T02:20:26;14.90;1.40
2174;DHT22;1093;51.424;11.764;2023-07-08T02:22:52;14.90;1.40
2174;DHT22;1093;51.424;11.764;2023-07-08T02:25:19;14.90;1.40
2174;DHT22;1093;51.424;11.764;2023-07-08T02:27:46;14.80;1.40
2174;DHT22;1093;51.424;11.764;2023-07-08T02:30:14;14.80;1.40
2174;DHT22;1093;51.424;11.764;2023-07-08T02:32:41;14.80;1.40
2174;DHT22;1093;51.424;11.764;2023-07-08T02:35:23;14.70;1.40
2174;DHT22;1093;51.424;11.764;2023-07-08T02:37:51;14.70;1.40
2174;DHT22;1093;51.424;11.764;2023-07-08T02:40:17;14.70;1.40
2174;DHT22;1093;51.424;11.764;2023-07-08T02:42:44;14.60;1.40
2174;DHT22;1093;51.424;11.764;2023-07-08T02:45:13;14.60;1.40
2174;DHT22;1093;51.424;11.764;2023-07-08T02:47:42;14.60;1.40
2174;DHT22;1093;51.424;11.764;2023-07-08T02:50:09;14.60;1.40
2174;DHT22;1093;51.424;11.764;2023-07-08T02:52:36;14.60;1.40
2174;DHT22;1093;51.424;11.764;2023-07-08T02:55:04;14.60;1.40
2174;DHT22;1093;51.424;11.764;2023-07-08T02:57:31;14.50;1.40
2174;DHT22;1093;51.424;11.764;2023-07-08T02:59:58;14.40;1.40
2174;DHT22;1093;51.424;11.764;2023-07-08T03:02:26;14.40;1.40
2174;DHT22;1093;51.424;11.764;2023-07-08T03:04:54;14.30;1.40
2174;DHT22;1093;51.424;11.764;2023-07-08T03:07:24;14.30;1.40
2174;DHT22;1093;51.424;11.764;2023-07-08T03:09:51;14.30;1.40
2174;DHT22;1093;51.424;11.764;2023-07-08T03:12:17;14.30;1.40
2174;DHT22;1093;51.424;11.764;2023-07-08T03:14:44;14.40;1.40
2174;DHT22;1093;51.424;11.764;2023-07-08T03:17:11;14.40;1.40
2174;DHT22;1093;51.424;11.764;2023-07-08T03:19:37;14.40;1.40
2174;DHT22;1093;51.424;11.764;2023-07-08T03:22:05;14.40;1.40
2174;DHT22;1093;51.424;11.764;2023-07-08T03:24:33;14.30;1.40
2174;DHT22;1093;51.424;11.764;2023-07-08T03:27:00;14.20;1.40
2174;DHT22;1093;51.424;11.764;2023-07-08T03:29:30;14.20;1.40
2174;DHT22;1093;51.424;11.764;2023-07-08T03:31:57;14.20;1.40
2174;DHT22;1093;51.424;11.764;2023-07-08T03:34:24;14.20;1.40
2174;DHT22;1093;51.424;11.764;2023-07-08T03:36:51;14.20;1.40
2174;DHT22;1093;51.424;11.764;2023-07-08T03:39:21;14.20;1.40
2174;DHT22;1093;51.424;11.764;2023-07-08T03:41:49;14.20;1.40
2174;DHT22;1093;51.424;11.764;2023-07-08T03:44:16;14.20;1.40
2174;DHT22;1093;51.424;11.764;2023-07-08T03:46:43;14.10;1.40
2174;DHT22;1093;51.424;11.764;2023-07-08T03:49:11;14.00;1.40
2174;DHT22;1093;51.424;11.764;2023-07-08T03:51:39;13.90;1.40
2174;DHT22;1093;51.424;11.764;2023-07-08T03:54:09;13.90;1.40
2174;DHT22;1093;51.424;11.764;2023-07-08T03:56:39;13.90;1.40
2174;DHT22;1093;51.424;11.764;2023-07-08T03:59:06;13.90;1.40
2174;DHT22;1093;51.424;11.764;2023-07-08T04:01:33;13.80;1.40
2174;DHT22;1093;51.424;11.764;2023-07-08T04:03:59;13.80;1.40
2174;DHT22;1093;51.424;11.764;2023-07-08T04:06:27;13.80;1.40
2174;DHT22;1093;51.424;11.764;2023-07-08T04:08:54;13.80;1.40
2174;DHT22;1093;51.424;11.764;2023-07-08T04:11:22;13.80;1.40
2174;DHT22;1093;51.424;11.764;2023-07-08T04:13:51;13.80;1.40
2174;DHT22;1093;51.424;11.764;2023-07-08T04:16:19;13.80;1.40
2174;DHT22;1093;51.424;11.764;2023-07-08T04:18:47;13.80;1.40
2174;DHT22;1093;51.424;11.764;2023-07-08T04:21:16;13.80;1.40
2174;DHT22;1093;51.424;11.764;2023-07-08T04:23:43;13.80;1.40
2174;DHT22;1093;51.424;11.764;2023-07-08T04:26:10;13.90;1.40
2174;DHT22;1093;51.424;11.764;2023-07-08T04:28:36;13.90;1.40
2174;DHT22;1093;51.424;11.764;2023-07-08T04:31:04;14.00;1.40
2174;DHT22;1093;51.424;11.764;2023-07-08T04:33:31;14.10;1.40
2174;DHT22;1093;51.424;11.764;2023-07-08T04:35:58;14.10;1.40
2174;DHT22;1093;51.424;11.764;2023-07-08T04:38:26;14.20;1.40
2174;DHT22;1093;51.424;11.764;2023-07-08T04:40:54;14.30;1.40
2174;DHT22;1093;51.424;11.764;2023-07-08T04:43:23;14.40;1.40
2174;DHT22;1093;51.424;11.764;2023-07-08T04:45:55;14.50;1.40
2174;DHT22;1093;51.424;11.764;2023-07-08T04:48:23;14.50;1.40
2174;DHT22;1093;51.424;11.764;2023-07-08T04:50:52;14.70;1.40
2174;DHT22;1093;51.424;11.764;2023-07-08T04:53:19;14.80;1.40
2174;DHT22;1093;51.424;11.764;2023-07-08T04:55:49;14.90;1.40
2174;DHT22;1093;51.424;11.764;2023-07-08T04:58:17;15.10;1.40
2174;DHT22;1093;51.424;11.764;2023-07-08T05:00:44;15.20;1.40
2174;DHT22;1093;51.424;11.764;2023-07-08T05:03:11;15.40;1.40
2174;DHT22;1093;51.424;11.764;2023-07-08T05:05:39;15.70;1.40
2174;DHT22;1093;51.424;11.764;2023-07-08T05:08:06;15.90;1.40
2174;DHT22;1093;51.424;11.764;2023-07-08T05:10:33;16.20;1.40
2174;DHT22;1093;51.424;11.764;2023-07-08T05:13:00;16.40;1.40
2174;DHT22;1093;51.424;11.764;2023-07-08T05:15:27;16.80;1.40
2174;DHT22;1093;51.424;11.764;2023-07-08T05:17:53;17.00;1.40
2174;DHT22;1093;51.424;11.764;2023-07-08T05:20:20;17.30;1.40
2174;DHT22;1093;51.424;11.764;2023-07-08T05:22:49;17.50;1.40
2174;DHT22;1093;51.424;11.764;2023-07-08T05:25:18;17.80;1.40
2174;DHT22;1093;51.424;11.764;2023-07-08T05:27:45;18.10;1.40
2174;DHT22;1093;51.424;11.764;2023-07-08T05:30:14;18.30;1.40
2174;DHT22;1093;51.424;11.764;2023-07-08T05:32:41;18.60;1.40
2174;DHT22;1093;51.424;11.764;2023-07-08T05:35:08;18.90;1.40
2174;DHT22;1093;51.424;11.764;2023-07-08T05:37:35;19.20;1.40
2174;DHT22;1093;51.424;11.764;2023-07-08T05:40:04;19.40;1.40
2174;DHT22;1093;51.424;11.764;2023-07-08T05:42:32;19.70;1.40
2174;DHT22;1093;51.424;11.764;2023-07-08T05:44:58;20.00;1.40
2174;DHT22;1093;51.424;11.764;2023-07-08T05:47:26;20.20;1.40
2174;DHT22;1093;51.424;11.764;2023-07-08T05:49:53;20.30;1.40
2174;DHT22;1093;51.424;11.764;2023-07-08T05:52:20;20.50;1.40
2174;DHT22;1093;51.424;11.764;2023-07-08T05:54:46;20.80;1.40
2174;DHT22;1093;51.424;11.764;2023-07-08T05:57:14;20.90;1.40
2174;DHT22;1093;51.424;11.764;2023-07-08T05:59:41;21.10;1.40
2174;DHT22;1093;51.424;11.764;2023-07-08T06:02:10;21.30;1.40
2174;DHT22;1093;51.424;11.764;2023-07-08T06:04:39;21.40;1.40
2174;DHT22;1093;51.424;11.764;2023-07-08T06:07:06;21.50;1.40
2174;DHT22;1093;51.424;11.764;2023-07-08T06:09:33;21.60;1.40
2174;DHT22;1093;51.424;11.764;2023-07-08T06:12:00;21.70;1.40
2174;DHT22;1093;51.424;11.764;2023-07-08T06:14:28;21.70;1.40
2174;DHT22;1093;51.424;11.764;2023-07-08T06:16:55;21.70;1.40
2174;DHT22;1093;51.424;11.764;2023-07-08T06:19:22;21.80;1.40
2174;DHT22;1093;51.424;11.764;2023-07-08T06:21:49;21.90;1.40
2174;DHT22;1093;51.424;11.764;2023-07-08T06:24:16;22.00;1.40
2174;DHT22;1093;51.424;11.764;2023-07-08T06:26:47;22.10;1.40
2174;DHT22;1093;51.424;11.764;2023-07-08T06:29:15;22.20;1.40
2174;DHT22;1093;51.424;11.764;2023-07-08T06:31:47;22.30;1.40
2174;DHT22;1093;51.424;11.764;2023-07-08T06:34:14;22.30;1.40
2174;DHT22;1093;51.424;11.764;2023-07-08T06:36:43;22.40;1.40
2174;DHT22;1093;51.424;11.764;2023-07-08T06:39:13;22.50;1.40
2174;DHT22;1093;51.424;11.764;2023-07-08T06:41:40;22.60;1.40
2174;DHT22;1093;51.424;11.764;2023-07-08T06:44:09;22.60;1.40
2174;DHT22;1093;51.424;11.764;2023-07-08T06:46:38;22.70;1.40
2174;DHT22;1093;51.424;11.764;2023-07-08T06:49:12;22.70;1.40
2174;DHT22;1093;51.424;11.764;2023-07-08T06:51:42;22.80;1.40
2174;DHT22;1093;51.424;11.764;2023-07-08T06:54:12;22.90;1.40
2174;DHT22;1093;51.424;11.764;2023-07-08T06:56:43;23.00;1.40
2174;DHT22;1093;51.424;11.764;2023-07-08T06:59:15;23.00;1.40
2174;DHT22;1093;51.424;11.764;2023-07-08T07:01:43;23.10;1.40
2174;DHT22;1093;51.424;11.764;2023-07-08T07:04:14;23.00;1.40
2174;DHT22;1093;51.424;11.764;2023-07-08T07:06:42;23.10;1.40
2174;DHT22;1093;51.424;11.764;2023-07-08T07:09:09;23.20;1.40
2174;DHT22;1093;51.424;11.764;2023-07-08T07:11:44;23.30;1.40
2174;DHT22;1093;51.424;11.764;2023-07-08T07:14:11;23.30;1.40
2174;DHT22;1093;51.424;11.764;2023-07-08T07:16:39;23.40;1.40
2174;DHT22;1093;51.424;11.764;2023-07-08T07:19:08;23.50;1.40
2174;DHT22;1093;51.424;11.764;2023-07-08T07:21:36;23.50;1.40
2174;DHT22;1093;51.424;11.764;2023-07-08T07:24:04;23.60;1.40
2174;DHT22;1093;51.424;11.764;2023-07-08T07:26:34;23.70;1.40
2174;DHT22;1093;51.424;11.764;2023-07-08T07:29:02;23.90;1.40
2174;DHT22;1093;51.424;11.764;2023-07-08T07:31:29;24.00;1.40
2174;DHT22;1093;51.424;11.764;2023-07-08T07:33:59;24.20;1.40
2174;DHT22;1093;51.424;11.764;2023-07-08T07:36:27;24.20;1.40
2174;DHT22;1093;51.424;11.764;2023-07-08T07:38:57;24.30;1.40
2174;DHT22;1093;51.424;11.764;2023-07-08T07:41:24;24.30;1.40
2174;DHT22;1093;51.424;11.764;2023-07-08T07:43:53;24.40;1.40
2174;DHT22;1093;51.424;11.764;2023-07-08T07:46:21;24.40;1.40
2174;DHT22;1093;51.424;11.764;2023-07-08T07:48:51;24.50;1.40
2174;DHT22;1093;51.424;11.764;2023-07-08T07:51:18;24.50;1.40
2174;DHT22;1093;51.424;11.764;2023-07-08T07:53:46;24.70;1.40
2174;DHT22;1093;51.424;11.764;2023-07-08T07:56:15;24.80;1.40
2174;DHT22;1093;51.424;11.764;2023-07-08T07:58:42;24.90;1.40
2174;DHT22;1093;51.424;11.764;2023-07-08T08:01:09;25.00;1.40
2174;DHT22;1093;51.424;11.764;2023-07-08T08:03:39;25.10;1.40
2174;DHT22;1093;51.424;11.764;2023-07-08T08:06:08;25.30;1.40
2174;DHT22;1093;51.424;11.764;2023-07-08T08:08:38;25.30;1.40
2174;DHT22;1093;51.424;11.764;2023-07-08T08:11:07;25.40;1.40
2174;DHT22;1093;51.424;11.764;2023-07-08T08:13:36;25.60;1.40
2174;DHT22;1093;51.424;11.764;2023-07-08T08:16:08;25.70;1.40
2174;DHT22;1093;51.424;11.764;2023-07-08T08:18:34;25.80;1.40
2174;DHT22;1093;51.424;11.764;2023-07-08T08:21:01;26.00;1.40
2174;DHT22;1093;51.424;11.764;2023-07-08T08:23:30;26.10;1.40
2174;DHT22;1093;51.424;11.764;2023-07-08T08:25:58;26.20;1.40
2174;DHT22;1093;51.424;11.764;2023-07-08T08:28:27;26.30;1.40
2174;DHT22;1093;51.424;11.764;2023-07-08T08:30:55;26.40;1.40
2174;DHT22;1093;51.424;11.764;2023-07-08T08:33:22;26.50;1.40
2174;DHT22;1093;51.424;11.764;2023-07-08T08:35:49;26.60;1.40
2174;DHT22;1093;51.424;11.764;2023-07-08T08:38:17;26.80;1.40
2174;DHT22;1093;51.424;11.764;2023-07-08T08:40:44;26.90;1.40
2174;DHT22;1093;51.424;11.764;2023-07-08T08:43:19;27.00;1.40
2174;DHT22;1093;51.424;11.764;2023-07-08T08:45:55;27.20;1.40
2174;DHT22;1093;51.424;11.764;2023-07-08T08:48:25;27.30;1.40
2174;DHT22;1093;51.424;11.764;2023-07-08T08:51:00;27.60;1.40
2174;DHT22;1093;51.424;11.764;2023-07-08T08:53:31;27.80;1.40
2174;DHT22;1093;51.424;11.764;2023-07-08T08:56:05;28.10;1.40
2174;DHT22;1093;51.424;11.764;2023-07-08T08:58:42;28.20;1.40
2174;DHT22;1093;51.424;11.764;2023-07-08T09:01:17;28.40;1.40
2174;DHT22;1093;51.424;11.764;2023-07-08T09:03:49;28.60;1.40
2174;DHT22;1093;51.424;11.764;2023-07-08T09:06:21;28.80;1.40
2174;DHT22;1093;51.424;11.764;2023-07-08T09:08:50;29.00;1.40
2174;DHT22;1093;51.424;11.764;2023-07-08T09:11:40;29.20;1.40
2174;DHT22;1093;51.424;11.764;2023-07-08T09:14:15;29.50;1.40
2174;DHT22;1093;51.424;11.764;2023-07-08T09:16:52;29.70;1.40
2174;DHT22;1093;51.424;11.764;2023-07-08T09:19:24;29.90;1.40
2174;DHT22;1093;51.424;11.764;2023-07-08T09:21:59;30.10;1.40
2174;DHT22;1093;51.424;11.764;2023-07-08T09:24:36;30.30;1.40
2174;DHT22;1093;51.424;11.764;2023-07-08T09:27:06;30.30;1.40
2174;DHT22;1093;51.424;11.764;2023-07-08T09:29:35;30.70;1.40
2174;DHT22;1093;51.424;11.764;2023-07-08T09:32:15;30.80;1.40
2174;DHT22;1093;51.424;11.764;2023-07-08T09:34:45;31.00;1.40
2174;DHT22;1093;51.424;11.764;2023-07-08T09:37:24;31.10;1.40
2174;DHT22;1093;51.424;11.764;2023-07-08T09:39:55;31.50;1.40
2174;DHT22;1093;51.424;11.764;2023-07-08T09:42:27;31.60;1.40
2174;DHT22;1093;51.424;11.764;2023-07-08T09:44:56;31.80;1.40
2174;DHT22;1093;51.424;11.764;2023-07-08T09:47:32;32.00;1.40
2174;DHT22;1093;51.424;11.764;2023-07-08T09:50:02;32.00;1.40
2174;DHT22;1093;51.424;11.764;2023-07-08T09:52:31;32.00;1.40
2174;DHT22;1093;51.424;11.764;2023-07-08T09:55:03;32.10;1.40
2174;DHT22;1093;51.424;11.764;2023-07-08T09:57:34;32.30;1.40
2174;DHT22;1093;51.424;11.764;2023-07-08T10:00:09;32.30;1.40
2174;DHT22;1093;51.424;11.764;2023-07-08T10:02:42;32.30;1.40
2174;DHT22;1093;51.424;11.764;2023-07-08T10:05:17;32.40;1.40
2174;DHT22;1093;51.424;11.764;2023-07-08T10:07:46;32.50;1.40
2174;DHT22;1093;51.424;11.764;2023-07-08T10:10:16;32.50;1.40
2174;DHT22;1093;51.424;11.764;2023-07-08T10:12:54;32.60;1.40
2174;DHT22;1093;51.424;11.764;2023-07-08T10:15:27;32.60;1.40
2174;DHT22;1093;51.424;11.764;2023-07-08T10:17:59;32.90;1.40
2174;DHT22;1093;51.424;11.764;2023-07-08T10:20:36;33.00;1.40
2174;DHT22;1093;51.424;11.764;2023-07-08T10:23:18;33.10;1.40
2174;DHT22;1093;51.424;11.764;2023-07-08T10:25:58;33.10;1.40
2174;DHT22;1093;51.424;11.764;2023-07-08T10:28:34;33.20;1.40
2174;DHT22;1093;51.424;11.764;2023-07-08T10:31:14;33.30;1.40
2174;DHT22;1093;51.424;11.764;2023-07-08T10:34:10;33.20;1.40
2174;DHT22;1093;51.424;11.764;2023-07-08T10:36:58;33.20;1.40
2174;DHT22;1093;51.424;11.764;2023-07-08T10:42:50;33.60;1.40
2174;DHT22;1093;51.424;11.764;2023-07-08T10:45:26;33.60;1.40
2174;DHT22;1093;51.424;11.764;2023-07-08T10:48:12;33.80;1.40
2174;DHT22;1093;51.424;11.764;2023-07-08T10:50:56;33.90;1.40
2174;DHT22;1093;51.424;11.764;2023-07-08T10:53:41;34.10;1.40
2174;DHT22;1093;51.424;11.764;2023-07-08T10:56:16;34.10;1.40
2174;DHT22;1093;51.424;11.764;2023-07-08T11:01:45;34.00;1.40
2174;DHT22;1093;51.424;11.764;2023-07-08T11:04:32;34.10;1.40
2174;DHT22;1093;51.424;11.764;2023-07-08T11:07:30;34.20;1.40
2174;DHT22;1093;51.424;11.764;2023-07-08T11:10:02;34.50;1.40
2174;DHT22;1093;51.424;11.764;2023-07-08T11:12:36;34.40;1.40
2174;DHT22;1093;51.424;11.764;2023-07-08T11:15:15;34.40;1.40
2174;DHT22;1093;51.424;11.764;2023-07-08T11:17:49;34.30;1.40
2174;DHT22;1093;51.424;11.764;2023-07-08T11:20:24;34.40;1.40
2174;DHT22;1093;51.424;11.764;2023-07-08T11:23:01;34.50;1.40
2174;DHT22;1093;51.424;11.764;2023-07-08T11:25:35;34.60;1.40
2174;DHT22;1093;51.424;11.764;2023-07-08T11:28:08;34.70;1.40
2174;DHT22;1093;51.424;11.764;2023-07-08T11:30:42;34.80;1.40
2174;DHT22;1093;51.424;11.764;2023-07-08T11:33:12;34.50;1.40
2174;DHT22;1093;51.424;11.764;2023-07-08T11:35:43;34.60;1.40
2174;DHT22;1093;51.424;11.764;2023-07-08T11:38:16;34.70;1.40
2174;DHT22;1093;51.424;11.764;2023-07-08T11:40:53;34.90;1.40
2174;DHT22;1093;51.424;11.764;2023-07-08T11:43:22;34.90;1.40
2174;DHT22;1093;51.424;11.764;2023-07-08T11:45:56;34.80;1.40
2174;DHT22;1093;51.424;11.764;2023-07-08T11:48:26;34.70;1.40
2174;DHT22;1093;51.424;11.764;2023-07-08T11:50:57;34.70;1.40
2174;DHT22;1093;51.424;11.764;2023-07-08T11:53:47;34.60;1.40
2174;DHT22;1093;51.424;11.764;2023-07-08T11:56:24;34.60;1.40
2174;DHT22;1093;51.424;11.764;2023-07-08T11:59:08;34.60;1.40
2174;DHT22;1093;51.424;11.764;2023-07-08T12:01:41;34.50;1.40
2174;DHT22;1093;51.424;11.764;2023-07-08T12:07:10;34.70;1.40
2174;DHT22;1093;51.424;11.764;2023-07-08T12:09:45;34.60;1.40
2174;DHT22;1093;51.424;11.764;2023-07-08T12:12:21;34.80;1.40
2174;DHT22;1093;51.424;11.764;2023-07-08T12:14:52;34.90;1.40
2174;DHT22;1093;51.424;11.764;2023-07-08T12:17:23;35.10;1.40
2174;DHT22;1093;51.424;11.764;2023-07-08T12:19:55;35.10;1.40
2174;DHT22;1093;51.424;11.764;2023-07-08T12:22:24;35.20;1.40
2174;DHT22;1093;51.424;11.764;2023-07-08T12:24:53;35.00;1.40
2174;DHT22;1093;51.424;11.764;2023-07-08T12:27:23;35.10;1.40
2174;DHT22;1093;51.424;11.764;2023-07-08T12:29:52;35.10;1.40
2174;DHT22;1093;51.424;11.764;2023-07-08T12:32:19;35.20;1.40
2174;DHT22;1093;51.424;11.764;2023-07-08T12:34:52;35.40;1.40
2174;DHT22;1093;51.424;11.764;2023-07-08T12:37:20;35.60;1.40
2174;DHT22;1093;51.424;11.764;2023-07-08T12:39:56;35.70;1.40
2174;DHT22;1093;51.424;11.764;2023-07-08T12:42:26;35.90;1.40
2174;DHT22;1093;51.424;11.764;2023-07-08T12:44:56;35.90;1.40
2174;DHT22;1093;51.424;11.764;2023-07-08T12:47:25;36.00;1.40
2174;DHT22;1093;51.424;11.764;2023-07-08T12:49:52;36.00;1.40
2174;DHT22;1093;51.424;11.764;2023-07-08T12:52:23;36.00;1.40
2174;DHT22;1093;51.424;11.764;2023-07-08T12:54:56;36.10;1.40
2174;DHT22;1093;51.424;11.764;2023-07-08T12:57:26;36.00;1.40
2174;DHT22;1093;51.424;11.764;2023-07-08T12:59:55;36.00;1.40
2174;DHT22;1093;51.424;11.764;2023-07-08T13:02:26;36.00;1.40
2174;DHT22;1093;51.424;11.764;2023-07-08T13:04:59;36.10;1.40
2174;DHT22;1093;51.424;11.764;2023-07-08T13:07:34;36.30;1.40
2174;DHT22;1093;51.424;11.764;2023-07-08T13:10:16;36.30;1.40
2174;DHT22;1093;51.424;11.764;2023-07-08T13:12:47;36.30;1.40
2174;DHT22;1093;51.424;11.764;2023-07-08T13:15:22;36.50;1.40
2174;DHT22;1093;51.424;11.764;2023-07-08T13:17:53;36.40;1.40
2174;DHT22;1093;51.424;11.764;2023-07-08T13:20:21;36.40;1.40
2174;DHT22;1093;51.424;11.764;2023-07-08T13:22:57;36.60;1.40
2174;DHT22;1093;51.424;11.764;2023-07-08T13:25:29;36.90;1.40
2174;DHT22;1093;51.424;11.764;2023-07-08T13:28:00;37.00;1.40
2174;DHT22;1093;51.424;11.764;2023-07-08T13:30:50;37.10;1.40
2174;DHT22;1093;51.424;11.764;2023-07-08T13:33:21;37.20;1.40
2174;DHT22;1093;51.424;11.764;2023-07-08T13:35:51;37.30;1.40
2174;DHT22;1093;51.424;11.764;2023-07-08T13:38:20;37.20;1.40
2174;DHT22;1093;51.424;11.764;2023-07-08T13:40:57;37.20;1.40
2174;DHT22;1093;51.424;11.764;2023-07-08T13:43:27;37.30;1.40
2174;DHT22;1093;51.424;11.764;2023-07-08T13:45:58;37.30;1.40
2174;DHT22;1093;51.424;11.764;2023-07-08T13:48:28;37.40;1.40
2174;DHT22;1093;51.424;11.764;2023-07-08T13:51:08;37.40;1.40
2174;DHT22;1093;51.424;11.764;2023-07-08T13:53:44;37.30;1.40
2174;DHT22;1093;51.424;11.764;2023-07-08T13:56:19;37.50;1.40
2174;DHT22;1093;51.424;11.764;2023-07-08T13:58:49;37.50;1.40
2174;DHT22;1093;51.424;11.764;2023-07-08T14:01:19;37.20;1.40
2174;DHT22;1093;51.424;11.764;2023-07-08T14:03:49;37.20;1.40
2174;DHT22;1093;51.424;11.764;2023-07-08T14:06:22;37.30;1.40
2174;DHT22;1093;51.424;11.764;2023-07-08T14:08:55;37.30;1.40
2174;DHT22;1093;51.424;11.764;2023-07-08T14:11:24;37.20;1.40
2174;DHT22;1093;51.424;11.764;2023-07-08T14:13:53;37.20;1.40
2174;DHT22;1093;51.424;11.764;2023-07-08T14:16:25;37.10;1.40
2174;DHT22;1093;51.424;11.764;2023-07-08T14:18:57;37.20;1.40
2174;DHT22;1093;51.424;11.764;2023-07-08T14:21:26;37.10;1.40
2174;DHT22;1093;51.424;11.764;2023-07-08T14:23:53;36.90;1.40
2174;DHT22;1093;51.424;11.764;2023-07-08T14:26:28;36.90;1.40
2174;DHT22;1093;51.424;11.764;2023-07-08T14:28:59;36.90;1.40
2174;DHT22;1093;51.424;11.764;2023-07-08T14:31:26;36.80;1.40
2174;DHT22;1093;51.424;11.764;2023-07-08T14:33:57;36.80;1.40
2174;DHT22;1093;51.424;11.764;2023-07-08T14:36:27;36.90;1.40
2174;DHT22;1093;51.424;11.764;2023-07-08T14:38:55;37.00;1.40
2174;DHT22;1093;51.424;11.764;2023-07-08T14:41:27;36.90;1.40
2174;DHT22;1093;51.424;11.764;2023-07-08T14:43:56;36.70;1.40
2174;DHT22;1093;51.424;11.764;2023-07-08T14:46:23;36.50;1.40
2174;DHT22;1093;51.424;11.764;2023-07-08T14:48:50;36.50;1.40
2174;DHT22;1093;51.424;11.764;2023-07-08T14:51:17;36.50;1.40
2174;DHT22;1093;51.424;11.764;2023-07-08T14:53:45;36.30;1.40
2174;DHT22;1093;51.424;11.764;2023-07-08T14:56:16;36.30;1.40
2174;DHT22;1093;51.424;11.764;2023-07-08T14:58:46;36.20;1.40
2174;DHT22;1093;51.424;11.764;2023-07-08T15:01:18;36.30;1.40
2174;DHT22;1093;51.424;11.764;2023-07-08T15:03:46;36.10;1.40
2174;DHT22;1093;51.424;11.764;2023-07-08T15:06:17;35.90;1.40
2174;DHT22;1093;51.424;11.764;2023-07-08T15:08:45;35.90;1.40
2174;DHT22;1093;51.424;11.764;2023-07-08T15:11:18;36.00;1.40
2174;DHT22;1093;51.424;11.764;2023-07-08T15:13:52;36.10;1.40
2174;DHT22;1093;51.424;11.764;2023-07-08T15:16:19;36.00;1.40
2174;DHT22;1093;51.424;11.764;2023-07-08T15:18:49;36.20;1.40
2174;DHT22;1093;51.424;11.764;2023-07-08T15:21:17;36.40;1.40
2174;DHT22;1093;51.424;11.764;2023-07-08T15:23:45;36.40;1.40
2174;DHT22;1093;51.424;11.764;2023-07-08T15:26:14;36.40;1.40
2174;DHT22;1093;51.424;11.764;2023-07-08T15:28:47;36.30;1.40
2174;DHT22;1093;51.424;11.764;2023-07-08T15:31:21;36.40;1.40
2174;DHT22;1093;51.424;11.764;2023-07-08T15:33:52;36.50;1.40
2174;DHT22;1093;51.424;11.764;2023-07-08T15:36:19;36.60;1.40
2174;DHT22;1093;51.424;11.764;2023-07-08T15:38:49;36.40;1.40
2174;DHT22;1093;51.424;11.764;2023-07-08T15:41:19;36.30;1.40
2174;DHT22;1093;51.424;11.764;2023-07-08T15:43:52;36.20;1.40
2174;DHT22;1093;51.424;11.764;2023-07-08T15:46:27;36.30;1.40
2174;DHT22;1093;51.424;11.764;2023-07-08T15:48:56;36.30;1.40
2174;DHT22;1093;51.424;11.764;2023-07-08T15:51:24;36.20;1.40
2174;DHT22;1093;51.424;11.764;2023-07-08T15:53:52;36.20;1.40
2174;DHT22;1093;51.424;11.764;2023-07-08T15:56:20;36.00;1.40
2174;DHT22;1093;51.424;11.764;2023-07-08T15:58:49;35.90;1.40
2174;DHT22;1093;51.424;11.764;2023-07-08T16:01:19;35.70;1.40
2174;DHT22;1093;51.424;11.764;2023-07-08T16:03:50;35.60;1.40
2174;DHT22;1093;51.424;11.764;2023-07-08T16:06:19;35.70;1.40
2174;DHT22;1093;51.424;11.764;2023-07-08T16:08:51;35.80;1.40
2174;DHT22;1093;51.424;11.764;2023-07-08T16:11:30;35.70;1.40
2174;DHT22;1093;51.424;11.764;2023-07-08T16:14:00;35.80;1.40
2174;DHT22;1093;51.424;11.764;2023-07-08T16:16:28;35.70;1.40
2174;DHT22;1093;51.424;11.764;2023-07-08T16:19:03;35.60;1.40
2174;DHT22;1093;51.424;11.764;2023-07-08T16:21:36;35.60;1.40
2174;DHT22;1093;51.424;11.764;2023-07-08T16:24:06;35.60;1.40
2174;DHT22;1093;51.424;11.764;2023-07-08T16:26:34;35.60;1.40
2174;DHT22;1093;51.424;11.764;2023-07-08T16:29:04;35.60;1.40
2174;DHT22;1093;51.424;11.764;2023-07-08T16:31:33;35.60;1.40